ěÝzenÝ letovÚho provozu ╚eskÚ republiky
Letiste: LKCV Aktualizace: 24.09.2023 02:29:39  UTC
 METAR LKCV 24.09. 02:30 ...
METAR LKCV 240230Z 15002KT CAVOK 07/06 Q1023 NOSIG RMK BLU BLU=
 TAF LKCV 23.09. 23:00 ...
TAF LKCV 232300Z 2400/2500 25004KT CAVOK      PROB30 TEMPO 2402/2407 4000 MIFG BR      BECMG 2406/2409 31008KT      BECMG 2408/2411 BKN030      BECMG 2414/2417 03008KT CAVOK=